sensor_id;sensor_type;location;lat;lon;timestamp;temperature;humidity
52203;DHT22;38173;52.850;6.970;2023-07-31T00:00:40;15.50;99.90
52203;DHT22;38173;52.850;6.970;2023-07-31T00:03:06;15.50;99.90
52203;DHT22;38173;52.850;6.970;2023-07-31T00:05:31;15.40;99.90
52203;DHT22;38173;52.850;6.970;2023-07-31T00:07:57;15.40;99.90
52203;DHT22;38173;52.850;6.970;2023-07-31T00:10:23;15.40;99.90
52203;DHT22;38173;52.850;6.970;2023-07-31T00:12:49;15.30;99.90
52203;DHT22;38173;52.850;6.970;2023-07-31T00:15:15;15.30;99.90
52203;DHT22;38173;52.850;6.970;2023-07-31T00:17:40;15.30;99.90
52203;DHT22;38173;52.850;6.970;2023-07-31T00:20:06;15.30;99.90
52203;DHT22;38173;52.850;6.970;2023-07-31T00:22:32;15.30;99.90
52203;DHT22;38173;52.850;6.970;2023-07-31T00:24:58;15.30;99.90
52203;DHT22;38173;52.850;6.970;2023-07-31T00:27:25;15.30;99.90
52203;DHT22;38173;52.850;6.970;2023-07-31T00:29:51;15.30;99.90
52203;DHT22;38173;52.850;6.970;2023-07-31T00:32:16;15.30;99.90
52203;DHT22;38173;52.850;6.970;2023-07-31T00:34:45;15.30;99.90
52203;DHT22;38173;52.850;6.970;2023-07-31T00:37:10;15.30;99.90
52203;DHT22;38173;52.850;6.970;2023-07-31T00:39:36;15.30;99.90
52203;DHT22;38173;52.850;6.970;2023-07-31T00:42:02;15.20;99.90
52203;DHT22;38173;52.850;6.970;2023-07-31T00:44:28;15.20;99.90
52203;DHT22;38173;52.850;6.970;2023-07-31T00:46:54;15.20;99.90
52203;DHT22;38173;52.850;6.970;2023-07-31T00:49:22;15.20;99.90
52203;DHT22;38173;52.850;6.970;2023-07-31T00:51:48;15.20;99.90
52203;DHT22;38173;52.850;6.970;2023-07-31T00:54:14;15.30;99.90
52203;DHT22;38173;52.850;6.970;2023-07-31T00:56:40;15.20;99.90
52203;DHT22;38173;52.850;6.970;2023-07-31T00:59:06;15.20;99.90
52203;DHT22;38173;52.850;6.970;2023-07-31T01:01:35;15.20;99.90
52203;DHT22;38173;52.850;6.970;2023-07-31T01:04:01;15.20;99.90
52203;DHT22;38173;52.850;6.970;2023-07-31T01:06:37;15.20;99.90
52203;DHT22;38173;52.850;6.970;2023-07-31T01:11:57;15.20;99.90
52203;DHT22;38173;52.850;6.970;2023-07-31T01:14:25;15.20;99.90
52203;DHT22;38173;52.850;6.970;2023-07-31T01:16:51;15.10;99.90
52203;DHT22;38173;52.850;6.970;2023-07-31T01:19:19;15.10;99.90
52203;DHT22;38173;52.850;6.970;2023-07-31T01:27:28;15.10;99.90
52203;DHT22;38173;52.850;6.970;2023-07-31T01:30:16;15.10;99.90
52203;DHT22;38173;52.850;6.970;2023-07-31T01:32:43;15.10;99.90
52203;DHT22;38173;52.850;6.970;2023-07-31T01:35:12;15.10;99.90
52203;DHT22;38173;52.850;6.970;2023-07-31T01:37:38;15.10;99.90
52203;DHT22;38173;52.850;6.970;2023-07-31T01:40:04;15.10;99.90
52203;DHT22;38173;52.850;6.970;2023-07-31T01:42:30;15.10;99.90
52203;DHT22;38173;52.850;6.970;2023-07-31T01:44:56;15.10;99.90
52203;DHT22;38173;52.850;6.970;2023-07-31T01:47:22;15.10;99.90
52203;DHT22;38173;52.850;6.970;2023-07-31T01:49:49;15.10;99.90
52203;DHT22;38173;52.850;6.970;2023-07-31T01:52:14;15.10;99.90
52203;DHT22;38173;52.850;6.970;2023-07-31T01:54:40;15.10;99.90
52203;DHT22;38173;52.850;6.970;2023-07-31T01:57:06;15.00;99.90
52203;DHT22;38173;52.850;6.970;2023-07-31T01:59:32;15.10;99.90
52203;DHT22;38173;52.850;6.970;2023-07-31T02:01:58;15.00;99.90
52203;DHT22;38173;52.850;6.970;2023-07-31T02:04:23;15.00;99.90
52203;DHT22;38173;52.850;6.970;2023-07-31T02:06:49;15.00;99.90
52203;DHT22;38173;52.850;6.970;2023-07-31T02:09:15;15.00;99.90
52203;DHT22;38173;52.850;6.970;2023-07-31T02:11:40;15.10;99.90
52203;DHT22;38173;52.850;6.970;2023-07-31T02:14:06;15.00;99.90
52203;DHT22;38173;52.850;6.970;2023-07-31T02:16:32;15.00;99.90
52203;DHT22;38173;52.850;6.970;2023-07-31T02:18:57;15.10;99.90
52203;DHT22;38173;52.850;6.970;2023-07-31T02:21:23;15.00;99.90
52203;DHT22;38173;52.850;6.970;2023-07-31T02:23:49;15.10;99.90
52203;DHT22;38173;52.850;6.970;2023-07-31T02:26:15;15.10;99.90
52203;DHT22;38173;52.850;6.970;2023-07-31T02:28:40;15.10;99.90
52203;DHT22;38173;52.850;6.970;2023-07-31T02:31:08;15.10;99.90
52203;DHT22;38173;52.850;6.970;2023-07-31T02:33:34;15.10;99.90
52203;DHT22;38173;52.850;6.970;2023-07-31T02:36:00;15.10;99.90
52203;DHT22;38173;52.850;6.970;2023-07-31T02:38:25;15.10;99.90
52203;DHT22;38173;52.850;6.970;2023-07-31T02:40:51;15.10;99.90
52203;DHT22;38173;52.850;6.970;2023-07-31T02:43:17;15.10;99.90
52203;DHT22;38173;52.850;6.970;2023-07-31T02:45:43;15.10;99.90
52203;DHT22;38173;52.850;6.970;2023-07-31T02:48:08;15.10;99.90
52203;DHT22;38173;52.850;6.970;2023-07-31T02:50:34;15.10;99.90
52203;DHT22;38173;52.850;6.970;2023-07-31T02:53:00;15.10;99.90
52203;DHT22;38173;52.850;6.970;2023-07-31T02:55:26;15.10;99.90
52203;DHT22;38173;52.850;6.970;2023-07-31T02:57:51;15.10;99.90
52203;DHT22;38173;52.850;6.970;2023-07-31T03:00:18;15.10;99.90
52203;DHT22;38173;52.850;6.970;2023-07-31T03:02:44;15.10;99.90
52203;DHT22;38173;52.850;6.970;2023-07-31T03:05:10;15.20;99.90
52203;DHT22;38173;52.850;6.970;2023-07-31T03:07:35;15.20;99.90
52203;DHT22;38173;52.850;6.970;2023-07-31T03:10:01;15.20;99.90
52203;DHT22;38173;52.850;6.970;2023-07-31T03:12:27;15.20;99.90
52203;DHT22;38173;52.850;6.970;2023-07-31T03:14:53;15.20;99.90
52203;DHT22;38173;52.850;6.970;2023-07-31T03:17:19;15.20;99.90
52203;DHT22;38173;52.850;6.970;2023-07-31T03:19:44;15.20;99.90
52203;DHT22;38173;52.850;6.970;2023-07-31T03:22:11;15.20;99.90
52203;DHT22;38173;52.850;6.970;2023-07-31T03:24:37;15.20;99.90
52203;DHT22;38173;52.850;6.970;2023-07-31T03:27:03;15.20;99.90
52203;DHT22;38173;52.850;6.970;2023-07-31T03:29:28;15.20;99.90
52203;DHT22;38173;52.850;6.970;2023-07-31T03:31:54;15.20;99.90
52203;DHT22;38173;52.850;6.970;2023-07-31T03:34:23;15.20;99.90
52203;DHT22;38173;52.850;6.970;2023-07-31T03:36:48;15.20;99.90
52203;DHT22;38173;52.850;6.970;2023-07-31T03:39:14;15.30;99.90
52203;DHT22;38173;52.850;6.970;2023-07-31T03:41:40;15.30;99.90
52203;DHT22;38173;52.850;6.970;2023-07-31T03:44:06;15.30;99.90
52203;DHT22;38173;52.850;6.970;2023-07-31T03:46:32;15.30;99.90
52203;DHT22;38173;52.850;6.970;2023-07-31T03:48:57;15.30;99.90
52203;DHT22;38173;52.850;6.970;2023-07-31T03:51:23;15.30;99.90
52203;DHT22;38173;52.850;6.970;2023-07-31T03:53:49;15.30;99.90
52203;DHT22;38173;52.850;6.970;2023-07-31T03:56:15;15.30;99.90
52203;DHT22;38173;52.850;6.970;2023-07-31T03:58:41;15.30;99.90
52203;DHT22;38173;52.850;6.970;2023-07-31T04:01:07;15.30;99.90
52203;DHT22;38173;52.850;6.970;2023-07-31T04:03:34;15.30;99.90
52203;DHT22;38173;52.850;6.970;2023-07-31T04:06:00;15.40;99.90
52203;DHT22;38173;52.850;6.970;2023-07-31T04:08:25;15.40;99.90
52203;DHT22;38173;52.850;6.970;2023-07-31T04:10:51;15.40;99.90
52203;DHT22;38173;52.850;6.970;2023-07-31T04:13:17;15.50;99.90
52203;DHT22;38173;52.850;6.970;2023-07-31T04:15:48;15.50;99.90
52203;DHT22;38173;52.850;6.970;2023-07-31T04:18:14;15.50;99.90
52203;DHT22;38173;52.850;6.970;2023-07-31T04:20:40;15.50;99.90
52203;DHT22;38173;52.850;6.970;2023-07-31T04:23:06;15.50;99.90
52203;DHT22;38173;52.850;6.970;2023-07-31T04:25:31;15.50;99.90
52203;DHT22;38173;52.850;6.970;2023-07-31T04:27:57;15.60;99.90
52203;DHT22;38173;52.850;6.970;2023-07-31T04:30:24;15.60;99.90
52203;DHT22;38173;52.850;6.970;2023-07-31T04:32:49;15.60;99.90
52203;DHT22;38173;52.850;6.970;2023-07-31T04:35:15;15.60;99.90
52203;DHT22;38173;52.850;6.970;2023-07-31T04:37:41;15.60;99.90
52203;DHT22;38173;52.850;6.970;2023-07-31T04:40:07;15.60;99.90
52203;DHT22;38173;52.850;6.970;2023-07-31T04:42:33;15.60;99.90
52203;DHT22;38173;52.850;6.970;2023-07-31T04:45:00;15.70;99.90
52203;DHT22;38173;52.850;6.970;2023-07-31T04:47:26;15.60;99.90
52203;DHT22;38173;52.850;6.970;2023-07-31T04:49:51;15.70;99.90
52203;DHT22;38173;52.850;6.970;2023-07-31T04:52:17;15.70;99.90
52203;DHT22;38173;52.850;6.970;2023-07-31T04:54:43;15.70;99.90
52203;DHT22;38173;52.850;6.970;2023-07-31T04:57:08;15.70;99.90
52203;DHT22;38173;52.850;6.970;2023-07-31T04:59:34;15.70;99.90
52203;DHT22;38173;52.850;6.970;2023-07-31T05:02:00;15.70;99.90
52203;DHT22;38173;52.850;6.970;2023-07-31T05:04:27;15.70;99.90
52203;DHT22;38173;52.850;6.970;2023-07-31T05:06:52;15.70;99.90
52203;DHT22;38173;52.850;6.970;2023-07-31T05:09:18;15.70;99.90
52203;DHT22;38173;52.850;6.970;2023-07-31T05:11:44;15.70;99.90
52203;DHT22;38173;52.850;6.970;2023-07-31T05:14:10;15.70;99.90
52203;DHT22;38173;52.850;6.970;2023-07-31T05:16:35;15.70;99.90
52203;DHT22;38173;52.850;6.970;2023-07-31T05:19:01;15.80;99.90
52203;DHT22;38173;52.850;6.970;2023-07-31T05:21:27;15.80;99.90
52203;DHT22;38173;52.850;6.970;2023-07-31T05:23:53;15.80;99.90
52203;DHT22;38173;52.850;6.970;2023-07-31T05:26:19;15.80;99.90
52203;DHT22;38173;52.850;6.970;2023-07-31T05:28:44;15.80;99.90
52203;DHT22;38173;52.850;6.970;2023-07-31T05:31:10;15.80;99.90
52203;DHT22;38173;52.850;6.970;2023-07-31T05:33:36;15.90;99.90
52203;DHT22;38173;52.850;6.970;2023-07-31T05:36:02;15.90;99.90
52203;DHT22;38173;52.850;6.970;2023-07-31T05:38:27;15.90;99.90
52203;DHT22;38173;52.850;6.970;2023-07-31T05:40:53;15.90;99.90
52203;DHT22;38173;52.850;6.970;2023-07-31T05:43:22;16.00;99.90
52203;DHT22;38173;52.850;6.970;2023-07-31T05:45:47;16.00;99.90
52203;DHT22;38173;52.850;6.970;2023-07-31T05:48:13;16.00;99.90
52203;DHT22;38173;52.850;6.970;2023-07-31T05:50:39;16.10;99.90
52203;DHT22;38173;52.850;6.970;2023-07-31T05:53:06;16.10;99.90
52203;DHT22;38173;52.850;6.970;2023-07-31T05:55:33;16.00;99.90
52203;DHT22;38173;52.850;6.970;2023-07-31T05:57:59;16.10;99.90
52203;DHT22;38173;52.850;6.970;2023-07-31T06:00:25;16.10;99.90
52203;DHT22;38173;52.850;6.970;2023-07-31T06:02:51;16.10;99.90
52203;DHT22;38173;52.850;6.970;2023-07-31T06:05:17;16.10;99.90
52203;DHT22;38173;52.850;6.970;2023-07-31T06:07:42;16.20;99.90
52203;DHT22;38173;52.850;6.970;2023-07-31T06:10:09;16.20;99.90
52203;DHT22;38173;52.850;6.970;2023-07-31T06:12:35;16.20;99.90
52203;DHT22;38173;52.850;6.970;2023-07-31T06:15:02;16.30;99.90
52203;DHT22;38173;52.850;6.970;2023-07-31T06:17:29;16.30;99.90
52203;DHT22;38173;52.850;6.970;2023-07-31T06:19:56;16.40;99.90
52203;DHT22;38173;52.850;6.970;2023-07-31T06:22:22;16.40;99.90
52203;DHT22;38173;52.850;6.970;2023-07-31T06:24:48;16.40;99.90
52203;DHT22;38173;52.850;6.970;2023-07-31T06:27:14;16.40;99.90
52203;DHT22;38173;52.850;6.970;2023-07-31T06:29:39;16.40;99.90
52203;DHT22;38173;52.850;6.970;2023-07-31T06:32:05;16.40;99.90
52203;DHT22;38173;52.850;6.970;2023-07-31T06:34:31;16.50;99.90
52203;DHT22;38173;52.850;6.970;2023-07-31T06:36:57;16.50;99.90
52203;DHT22;38173;52.850;6.970;2023-07-31T06:39:23;16.50;99.90
52203;DHT22;38173;52.850;6.970;2023-07-31T06:41:48;16.60;99.90
52203;DHT22;38173;52.850;6.970;2023-07-31T06:44:14;16.60;99.90
52203;DHT22;38173;52.850;6.970;2023-07-31T06:46:40;16.60;99.90
52203;DHT22;38173;52.850;6.970;2023-07-31T06:49:06;16.70;99.90
52203;DHT22;38173;52.850;6.970;2023-07-31T06:51:31;16.70;99.90
52203;DHT22;38173;52.850;6.970;2023-07-31T06:53:58;16.70;99.90
52203;DHT22;38173;52.850;6.970;2023-07-31T06:56:23;16.70;99.90
52203;DHT22;38173;52.850;6.970;2023-07-31T06:58:49;16.70;99.90
52203;DHT22;38173;52.850;6.970;2023-07-31T07:01:15;16.70;99.90
52203;DHT22;38173;52.850;6.970;2023-07-31T07:03:41;16.70;99.90
52203;DHT22;38173;52.850;6.970;2023-07-31T07:06:07;16.70;99.90
52203;DHT22;38173;52.850;6.970;2023-07-31T07:08:32;16.70;99.90
52203;DHT22;38173;52.850;6.970;2023-07-31T07:10:58;16.80;99.90
52203;DHT22;38173;52.850;6.970;2023-07-31T07:13:27;16.80;99.90
52203;DHT22;38173;52.850;6.970;2023-07-31T07:15:53;16.80;99.90
52203;DHT22;38173;52.850;6.970;2023-07-31T07:18:19;16.80;99.90
52203;DHT22;38173;52.850;6.970;2023-07-31T07:20:50;16.90;99.90
52203;DHT22;38173;52.850;6.970;2023-07-31T07:23:16;17.00;99.90
52203;DHT22;38173;52.850;6.970;2023-07-31T07:25:43;17.00;99.90
52203;DHT22;38173;52.850;6.970;2023-07-31T07:28:09;17.00;99.90
52203;DHT22;38173;52.850;6.970;2023-07-31T07:30:35;17.10;99.90
52203;DHT22;38173;52.850;6.970;2023-07-31T07:33:01;17.00;99.90
52203;DHT22;38173;52.850;6.970;2023-07-31T07:35:28;17.10;99.90
52203;DHT22;38173;52.850;6.970;2023-07-31T07:37:54;17.00;99.90
52203;DHT22;38173;52.850;6.970;2023-07-31T07:40:20;17.10;99.90
52203;DHT22;38173;52.850;6.970;2023-07-31T07:42:46;17.00;99.90
52203;DHT22;38173;52.850;6.970;2023-07-31T07:45:13;17.10;99.90
52203;DHT22;38173;52.850;6.970;2023-07-31T07:47:40;17.10;99.90
52203;DHT22;38173;52.850;6.970;2023-07-31T07:50:07;17.10;99.90
52203;DHT22;38173;52.850;6.970;2023-07-31T07:52:33;17.20;99.90
52203;DHT22;38173;52.850;6.970;2023-07-31T07:54:58;17.20;99.90
52203;DHT22;38173;52.850;6.970;2023-07-31T07:57:26;17.20;99.90
52203;DHT22;38173;52.850;6.970;2023-07-31T07:59:52;17.20;99.90
52203;DHT22;38173;52.850;6.970;2023-07-31T08:02:17;17.20;99.90
52203;DHT22;38173;52.850;6.970;2023-07-31T08:04:43;17.20;99.90
52203;DHT22;38173;52.850;6.970;2023-07-31T08:07:12;17.20;99.90
52203;DHT22;38173;52.850;6.970;2023-07-31T08:09:38;17.20;99.90
52203;DHT22;38173;52.850;6.970;2023-07-31T08:12:05;17.20;99.90
52203;DHT22;38173;52.850;6.970;2023-07-31T08:14:32;17.20;99.90
52203;DHT22;38173;52.850;6.970;2023-07-31T08:16:57;17.20;99.90
52203;DHT22;38173;52.850;6.970;2023-07-31T08:19:23;17.30;99.90
52203;DHT22;38173;52.850;6.970;2023-07-31T08:21:49;17.30;99.90
52203;DHT22;38173;52.850;6.970;2023-07-31T08:24:15;17.40;99.90
52203;DHT22;38173;52.850;6.970;2023-07-31T08:26:40;17.50;99.90
52203;DHT22;38173;52.850;6.970;2023-07-31T08:29:07;17.50;99.90
52203;DHT22;38173;52.850;6.970;2023-07-31T08:31:33;17.60;99.90
52203;DHT22;38173;52.850;6.970;2023-07-31T08:34:00;17.60;99.90
52203;DHT22;38173;52.850;6.970;2023-07-31T08:36:26;17.60;99.90
52203;DHT22;38173;52.850;6.970;2023-07-31T08:38:51;17.70;99.90
52203;DHT22;38173;52.850;6.970;2023-07-31T08:41:17;17.70;99.90
52203;DHT22;38173;52.850;6.970;2023-07-31T08:43:47;17.70;99.90
52203;DHT22;38173;52.850;6.970;2023-07-31T08:46:13;17.70;99.90
52203;DHT22;38173;52.850;6.970;2023-07-31T08:48:44;17.70;99.90
52203;DHT22;38173;52.850;6.970;2023-07-31T08:51:11;17.60;99.90
52203;DHT22;38173;52.850;6.970;2023-07-31T08:53:37;17.60;99.90
52203;DHT22;38173;52.850;6.970;2023-07-31T08:56:03;17.60;99.90
52203;DHT22;38173;52.850;6.970;2023-07-31T08:58:31;17.60;99.90
52203;DHT22;38173;52.850;6.970;2023-07-31T09:01:04;17.70;99.90
52203;DHT22;38173;52.850;6.970;2023-07-31T09:03:33;17.80;99.90
52203;DHT22;38173;52.850;6.970;2023-07-31T09:06:01;17.90;99.90
52203;DHT22;38173;52.850;6.970;2023-07-31T09:08:30;18.00;99.90
52203;DHT22;38173;52.850;6.970;2023-07-31T09:11:00;18.10;99.90
52203;DHT22;38173;52.850;6.970;2023-07-31T09:13:30;18.20;99.90
52203;DHT22;38173;52.850;6.970;2023-07-31T09:15:56;18.20;99.90
52203;DHT22;38173;52.850;6.970;2023-07-31T09:18:22;18.20;99.90
52203;DHT22;38173;52.850;6.970;2023-07-31T09:21:01;18.20;99.90
52203;DHT22;38173;52.850;6.970;2023-07-31T09:26:08;18.50;99.90
52203;DHT22;38173;52.850;6.970;2023-07-31T09:28:34;18.60;99.90
52203;DHT22;38173;52.850;6.970;2023-07-31T09:31:00;18.60;99.90
52203;DHT22;38173;52.850;6.970;2023-07-31T09:33:25;18.70;99.90
52203;DHT22;38173;52.850;6.970;2023-07-31T09:35:51;18.70;99.90
52203;DHT22;38173;52.850;6.970;2023-07-31T09:38:17;18.70;99.90
52203;DHT22;38173;52.850;6.970;2023-07-31T09:40:47;18.70;99.90
52203;DHT22;38173;52.850;6.970;2023-07-31T09:43:17;18.80;99.90
52203;DHT22;38173;52.850;6.970;2023-07-31T09:45:44;18.90;99.90
52203;DHT22;38173;52.850;6.970;2023-07-31T09:48:13;18.90;99.90
52203;DHT22;38173;52.850;6.970;2023-07-31T09:50:42;19.00;99.90
52203;DHT22;38173;52.850;6.970;2023-07-31T09:53:09;19.10;99.90
52203;DHT22;38173;52.850;6.970;2023-07-31T09:55:36;19.00;99.90
52203;DHT22;38173;52.850;6.970;2023-07-31T09:58:12;19.10;99.90
52203;DHT22;38173;52.850;6.970;2023-07-31T10:00:38;19.20;99.90
52203;DHT22;38173;52.850;6.970;2023-07-31T10:03:05;19.20;99.90
52203;DHT22;38173;52.850;6.970;2023-07-31T10:05:39;19.20;99.90
52203;DHT22;38173;52.850;6.970;2023-07-31T10:08:09;19.40;99.90
52203;DHT22;38173;52.850;6.970;2023-07-31T10:10:36;19.40;99.90
52203;DHT22;38173;52.850;6.970;2023-07-31T10:13:05;19.50;99.90
52203;DHT22;38173;52.850;6.970;2023-07-31T10:15:32;19.50;99.90
52203;DHT22;38173;52.850;6.970;2023-07-31T10:17:59;19.50;99.90
52203;DHT22;38173;52.850;6.970;2023-07-31T10:20:26;19.50;99.90
52203;DHT22;38173;52.850;6.970;2023-07-31T10:22:55;19.40;99.90
52203;DHT22;38173;52.850;6.970;2023-07-31T10:25:22;19.40;99.90
52203;DHT22;38173;52.850;6.970;2023-07-31T10:27:48;19.40;99.90
52203;DHT22;38173;52.850;6.970;2023-07-31T10:30:16;19.40;99.90
52203;DHT22;38173;52.850;6.970;2023-07-31T10:32:44;19.30;99.90
52203;DHT22;38173;52.850;6.970;2023-07-31T10:35:11;19.30;99.90
52203;DHT22;38173;52.850;6.970;2023-07-31T10:37:39;19.30;99.90
52203;DHT22;38173;52.850;6.970;2023-07-31T10:40:11;19.30;99.90
52203;DHT22;38173;52.850;6.970;2023-07-31T10:42:52;19.30;99.90
52203;DHT22;38173;52.850;6.970;2023-07-31T10:48:01;19.30;99.90
52203;DHT22;38173;52.850;6.970;2023-07-31T10:50:28;19.30;99.90
52203;DHT22;38173;52.850;6.970;2023-07-31T10:52:56;19.40;99.90
52203;DHT22;38173;52.850;6.970;2023-07-31T10:55:33;19.50;99.90
52203;DHT22;38173;52.850;6.970;2023-07-31T10:58:12;19.60;99.90
52203;DHT22;38173;52.850;6.970;2023-07-31T11:00:42;19.70;99.90
52203;DHT22;38173;52.850;6.970;2023-07-31T11:03:14;19.90;99.90
52203;DHT22;38173;52.850;6.970;2023-07-31T11:11:11;20.20;99.90
52203;DHT22;38173;52.850;6.970;2023-07-31T11:13:48;20.20;99.90
52203;DHT22;38173;52.850;6.970;2023-07-31T11:16:24;20.20;99.90
52203;DHT22;38173;52.850;6.970;2023-07-31T11:18:51;20.20;99.90
52203;DHT22;38173;52.850;6.970;2023-07-31T11:21:20;20.20;99.90
52203;DHT22;38173;52.850;6.970;2023-07-31T11:23:54;20.30;99.90
52203;DHT22;38173;52.850;6.970;2023-07-31T11:26:23;20.30;99.90
52203;DHT22;38173;52.850;6.970;2023-07-31T11:28:52;20.60;99.90
52203;DHT22;38173;52.850;6.970;2023-07-31T11:31:18;20.90;99.90
52203;DHT22;38173;52.850;6.970;2023-07-31T11:33:44;20.90;99.90
52203;DHT22;38173;52.850;6.970;2023-07-31T11:36:20;20.90;99.90
52203;DHT22;38173;52.850;6.970;2023-07-31T11:38:46;20.90;99.90
52203;DHT22;38173;52.850;6.970;2023-07-31T11:41:15;20.80;99.90
52203;DHT22;38173;52.850;6.970;2023-07-31T11:43:59;20.80;99.90
52203;DHT22;38173;52.850;6.970;2023-07-31T11:46:30;20.70;99.90
52203;DHT22;38173;52.850;6.970;2023-07-31T11:49:00;20.70;99.90
52203;DHT22;38173;52.850;6.970;2023-07-31T11:51:27;20.50;99.90
52203;DHT22;38173;52.850;6.970;2023-07-31T11:53:57;20.50;99.90
52203;DHT22;38173;52.850;6.970;2023-07-31T11:56:25;20.30;99.90
52203;DHT22;38173;52.850;6.970;2023-07-31T11:58:59;20.10;99.90
52203;DHT22;38173;52.850;6.970;2023-07-31T12:01:34;20.00;99.90
52203;DHT22;38173;52.850;6.970;2023-07-31T12:04:00;19.90;99.90
52203;DHT22;38173;52.850;6.970;2023-07-31T12:06:38;19.90;99.90
52203;DHT22;38173;52.850;6.970;2023-07-31T12:09:04;19.80;99.90
52203;DHT22;38173;52.850;6.970;2023-07-31T12:11:30;20.00;99.90
52203;DHT22;38173;52.850;6.970;2023-07-31T12:13:56;20.10;99.90
52203;DHT22;38173;52.850;6.970;2023-07-31T12:16:26;20.20;99.90
52203;DHT22;38173;52.850;6.970;2023-07-31T12:18:52;20.50;99.90
52203;DHT22;38173;52.850;6.970;2023-07-31T12:21:19;20.60;99.90
52203;DHT22;38173;52.850;6.970;2023-07-31T12:23:45;20.80;99.90
52203;DHT22;38173;52.850;6.970;2023-07-31T12:28:42;20.70;99.90
52203;DHT22;38173;52.850;6.970;2023-07-31T12:31:13;20.60;99.90
52203;DHT22;38173;52.850;6.970;2023-07-31T12:33:40;20.60;99.90
52203;DHT22;38173;52.850;6.970;2023-07-31T12:36:12;20.50;99.90
52203;DHT22;38173;52.850;6.970;2023-07-31T12:38:38;20.40;99.90
52203;DHT22;38173;52.850;6.970;2023-07-31T12:41:04;20.20;99.90
52203;DHT22;38173;52.850;6.970;2023-07-31T12:43:33;20.00;99.90
52203;DHT22;38173;52.850;6.970;2023-07-31T12:45:59;19.80;99.90
52203;DHT22;38173;52.850;6.970;2023-07-31T12:48:25;19.70;99.90
52203;DHT22;38173;52.850;6.970;2023-07-31T12:50:51;19.70;99.90
52203;DHT22;38173;52.850;6.970;2023-07-31T12:53:17;19.70;99.90
52203;DHT22;38173;52.850;6.970;2023-07-31T12:55:42;19.80;99.90
52203;DHT22;38173;52.850;6.970;2023-07-31T12:58:08;19.90;99.90
52203;DHT22;38173;52.850;6.970;2023-07-31T13:00:34;19.90;99.90
52203;DHT22;38173;52.850;6.970;2023-07-31T13:03:00;20.00;99.90
52203;DHT22;38173;52.850;6.970;2023-07-31T13:05:27;19.90;99.90
52203;DHT22;38173;52.850;6.970;2023-07-31T13:07:53;19.90;99.90
52203;DHT22;38173;52.850;6.970;2023-07-31T13:10:19;19.90;99.90
52203;DHT22;38173;52.850;6.970;2023-07-31T13:12:45;19.90;99.90
52203;DHT22;38173;52.850;6.970;2023-07-31T13:15:14;20.20;99.90
52203;DHT22;38173;52.850;6.970;2023-07-31T13:17:40;20.50;99.90
52203;DHT22;38173;52.850;6.970;2023-07-31T13:20:06;20.80;99.90
52203;DHT22;38173;52.850;6.970;2023-07-31T13:22:32;21.10;99.90
52203;DHT22;38173;52.850;6.970;2023-07-31T13:24:58;21.30;99.90
52203;DHT22;38173;52.850;6.970;2023-07-31T13:27:24;21.40;99.90
52203;DHT22;38173;52.850;6.970;2023-07-31T13:29:51;21.30;99.90
52203;DHT22;38173;52.850;6.970;2023-07-31T13:32:18;21.10;99.90
52203;DHT22;38173;52.850;6.970;2023-07-31T13:34:46;20.90;99.90
52203;DHT22;38173;52.850;6.970;2023-07-31T13:37:13;20.70;99.90
52203;DHT22;38173;52.850;6.970;2023-07-31T13:39:39;20.60;99.90
52203;DHT22;38173;52.850;6.970;2023-07-31T13:42:06;20.50;99.90
52203;DHT22;38173;52.850;6.970;2023-07-31T13:44:34;20.40;99.90
52203;DHT22;38173;52.850;6.970;2023-07-31T13:47:00;20.40;99.90
52203;DHT22;38173;52.850;6.970;2023-07-31T13:49:26;20.30;99.90
52203;DHT22;38173;52.850;6.970;2023-07-31T13:51:52;20.30;99.90
52203;DHT22;38173;52.850;6.970;2023-07-31T13:54:18;20.30;99.90
52203;DHT22;38173;52.850;6.970;2023-07-31T13:56:44;20.10;99.90
52203;DHT22;38173;52.850;6.970;2023-07-31T13:59:10;20.10;99.90
52203;DHT22;38173;52.850;6.970;2023-07-31T14:01:37;20.30;99.90
52203;DHT22;38173;52.850;6.970;2023-07-31T14:04:03;20.40;99.90
52203;DHT22;38173;52.850;6.970;2023-07-31T14:06:28;20.60;99.90
52203;DHT22;38173;52.850;6.970;2023-07-31T14:08:54;20.70;99.90
52203;DHT22;38173;52.850;6.970;2023-07-31T14:11:22;20.80;99.90
52203;DHT22;38173;52.850;6.970;2023-07-31T14:13:51;20.90;99.90
52203;DHT22;38173;52.850;6.970;2023-07-31T14:16:17;20.90;99.90
52203;DHT22;38173;52.850;6.970;2023-07-31T14:18:43;21.00;99.90
52203;DHT22;38173;52.850;6.970;2023-07-31T14:21:09;21.00;99.90
52203;DHT22;38173;52.850;6.970;2023-07-31T14:23:34;21.00;99.90
52203;DHT22;38173;52.850;6.970;2023-07-31T14:26:00;21.00;99.90
52203;DHT22;38173;52.850;6.970;2023-07-31T14:28:32;20.90;99.90
52203;DHT22;38173;52.850;6.970;2023-07-31T14:30:58;20.90;99.90
52203;DHT22;38173;52.850;6.970;2023-07-31T14:33:24;20.90;99.90
52203;DHT22;38173;52.850;6.970;2023-07-31T14:35:49;20.90;99.90
52203;DHT22;38173;52.850;6.970;2023-07-31T14:38:15;20.90;99.90
52203;DHT22;38173;52.850;6.970;2023-07-31T14:40:41;21.00;99.90
52203;DHT22;38173;52.850;6.970;2023-07-31T14:43:07;21.00;99.90
52203;DHT22;38173;52.850;6.970;2023-07-31T14:45:33;21.00;99.90
52203;DHT22;38173;52.850;6.970;2023-07-31T14:47:59;21.10;99.90
52203;DHT22;38173;52.850;6.970;2023-07-31T14:50:25;21.30;99.90
52203;DHT22;38173;52.850;6.970;2023-07-31T14:52:51;21.30;99.90
52203;DHT22;38173;52.850;6.970;2023-07-31T14:55:18;21.40;99.90
52203;DHT22;38173;52.850;6.970;2023-07-31T14:57:44;21.40;99.90
52203;DHT22;38173;52.850;6.970;2023-07-31T15:00:10;21.40;99.90
52203;DHT22;38173;52.850;6.970;2023-07-31T15:02:39;21.40;99.90
52203;DHT22;38173;52.850;6.970;2023-07-31T15:05:05;21.30;99.90
52203;DHT22;38173;52.850;6.970;2023-07-31T15:07:32;21.40;99.90
52203;DHT22;38173;52.850;6.970;2023-07-31T15:09:58;21.30;99.90
52203;DHT22;38173;52.850;6.970;2023-07-31T15:12:28;21.20;99.90
52203;DHT22;38173;52.850;6.970;2023-07-31T15:14:54;21.00;99.90
52203;DHT22;38173;52.850;6.970;2023-07-31T15:17:20;20.90;99.90
52203;DHT22;38173;52.850;6.970;2023-07-31T15:19:45;20.90;99.90
52203;DHT22;38173;52.850;6.970;2023-07-31T15:22:11;20.80;99.90
52203;DHT22;38173;52.850;6.970;2023-07-31T15:24:37;20.80;99.90
52203;DHT22;38173;52.850;6.970;2023-07-31T15:27:03;20.70;99.90
52203;DHT22;38173;52.850;6.970;2023-07-31T15:29:29;20.70;99.90
52203;DHT22;38173;52.850;6.970;2023-07-31T15:31:55;20.60;99.90
52203;DHT22;38173;52.850;6.970;2023-07-31T15:34:21;20.60;99.90
52203;DHT22;38173;52.850;6.970;2023-07-31T15:36:47;20.50;99.90
52203;DHT22;38173;52.850;6.970;2023-07-31T15:39:13;20.40;99.90
52203;DHT22;38173;52.850;6.970;2023-07-31T15:41:40;20.40;99.90
52203;DHT22;38173;52.850;6.970;2023-07-31T15:44:07;20.40;99.90
52203;DHT22;38173;52.850;6.970;2023-07-31T15:46:33;20.30;99.90
52203;DHT22;38173;52.850;6.970;2023-07-31T15:48:58;20.20;99.90